Accueil
METAR-TAF:

METAR-TAF

Aéroports :

Yeovilton, Angleterre

latitude: 51-00N, longitude: 002-38W, altitude: 23 m

Observation

Le bulletin a été fait il y a 1 heure et 1 minutes, à 13:50 UTC
Vent 8 kt de ouest/nord-ouest
Température 6°C
Humidité 75%
Pression 1038 hPa
Visibilité 10 km ou plus

METAR: EGDY 221350Z AUTO 30008KT 9999 OVC020/// 06/02 Q1038

Heure: 14:51 (14:51 UTC)

Prévision

Le bulletin a été fait il y a 4 heures et 0 minutes, à 10:51 UTC
Prévision valable du 22 à 09 UTC au 22 à 18 UTC
Vent 2 kt de direction variable
Visibilité 10 km ou plus
Quelques nuages à une hauteur de 2000 ft
Evoluant progressivement
du 22 à 13 UTC au 22 à 15 UTC
Vent 5 kt de nord/nord-ouest
Nuages épars à une hauteur de 2000 ft

TAF: EGDY 221051Z 2209/2218 VRB02KT 9999 FEW020 BECMG 2213/2215 34005KT SCT020

Observations et prévisions météorologiques de plus de 4000 aéroports (messages METAR et TAF).

Les stations disponibles sont représentées par des disques jaunes et rouges sur la carte.

Passer la souris dessus pour voir le nom de la station.

Cliquer dessus pour voir les observations et prévisions météorologiques.

Pour changer de carte: cliquez sur les boutons verts avec une croix noire pour zoomer, sur le bouton vert avec un tiret pour effectuer un zoom arrière, ou sur les flèches vertes pour les cartes adjacentes.


METAR-TAF: